Aviation Discussion

.AVIATION...ISSUED 1149 PM EST THU NOV 20 2014 //DISCUSSION... LAKE EFFECT SNOW SHOWERS HAVE ALL BUT ENDED FOR THE TAF SITES OVERNIGHT...WITH THE LONE EXCEPTION BEING YIP WHERE SOME LINGERING FLURRIES AND VERY LIGHT SNOW CONTINUES. OUTSIDE OF THIS MOST TAF SITES HAVE CLEARED OR HAVE RISEN TO VFR. THIS IS EXPECTED TO CONTINUE THROUGHT DAYTIME HOURS ON FRIDAY AND INTO FRIDAY NIGHT AS A RIDGE OF HIGH PRESSURE TRACKS THROUGH THE CENTRAL GREAT LAKES. //DTW THRESHOLD THREATS... * NONE.

KDTW 210851Z 2109/2212 27008KT P6SM SCT040
FM211800 23008KT P6SM SKC
FM220200 19006KT P6SM BKN150
FM220800 19006KT P6SM SCT030 OVC060=

KDET 210524Z 2106/2206 26008KT P6SM FEW035
FM210700 27008KT P6SM SCT040
FM211800 23008KT P6SM SCT030
FM220000 19006KT P6SM BKN150=

Cleveland Center Weather Service Unit (CWSU)
Mission:
Our main responsibility is to provide up to the minute weather information to FAA Supervisors and the ZOB Traffic Management Unit (TMU). Some of the products issued by the CWSU are the Center Weather Advisories (CWA) and the Meteorological Impact Statement (MIS). The CWA is an aviation weather warning for thunderstorms, severe icing or turbulence, and low IFR ceilings and visibility. The MIS is a 2-12 hour forecast for weather conditions, which are expected to impact ARTCC operations.
 
Operations:
The Cleveland Center Weather Service Unit (ZOB CWSU) is located at the Federal Aviation Administration (FAA) Air Route Traffic Control Center (ARTCC) in Oberlin, OH. Four National Weather Service meteorologists staff the office. Our hours of operation are from 6:00 A.M. to 9:30 P.M. daily.

Web Site Owner:
NOAA National Weather Service
Cleveland ARTCC Attn:CWSU
326 East Lorain Street
Oberlin, OH 44074
Web Administrator:Webmaster
Page last modified: 23 Feb 2013
Disclaimer
Credits
Glossary
Privacy Policy
About Our Organization
Career Opportunities